Time;durP1;ratioP1;P1;durP2;ratioP2;P2;SDS_P1;SDS_P2;PMS_P1;PMS_P2;Temp;Humidity;BMP_temperature;BMP_pressure;BME280_temperature;BME280_humidity;BME280_pressure;Samples;Min_cycle;Max_cycle;Signal;HPM_P1;HPM_P2
2022/10/14 00:02:08;;;;;;;8.20;5.13;;;;;;;20.46;64.53;100491.63;5050322;28;20195;-70
2022/10/14 00:04:33;;;;;;;11.00;4.33;;;;;;;20.44;64.75;100497.75;5016732;28;20195;-69
2022/10/14 00:06:59;;;;;;;13.93;4.93;;;;;;;20.45;64.67;100496.50;5051149;28;20172;-69
2022/10/14 00:09:24;;;;;;;9.30;5.47;;;;;;;20.45;64.61;100495.69;5051637;28;20160;-69
2022/10/14 00:11:50;;;;;;;7.47;5.10;;;;;;;20.44;64.69;100500.59;5033342;28;20195;-70
2022/10/14 00:14:17;;;;;;;9.33;5.20;;;;;;;20.42;64.66;100497.28;5051642;28;20180;-70
2022/10/14 00:16:44;;;;;;;8.67;5.17;;;;;;;20.43;64.57;100503.84;5016962;28;20279;-70
2022/10/14 00:19:09;;;;;;;11.33;5.60;;;;;;;20.46;64.88;100503.09;5017215;28;20965;-69
2022/10/14 00:21:36;;;;;;;6.37;4.40;;;;;;;20.46;64.67;100491.63;5050891;28;20509;-69
2022/10/14 00:24:02;;;;;;;11.30;5.00;;;;;;;20.45;64.68;100499.38;5033069;28;20248;-69
2022/10/14 00:26:29;;;;;;;13.40;5.33;;;;;;;20.44;65.01;100491.16;5034351;28;20438;-69
2022/10/14 00:28:55;;;;;;;7.70;4.47;;;;;;;20.44;64.78;100486.28;5052033;28;20195;-69
2022/10/14 00:31:21;;;;;;;7.60;4.70;;;;;;;20.43;64.78;100490.34;5049703;28;20446;-69
2022/10/14 00:33:46;;;;;;;7.03;5.17;;;;;;;20.44;64.64;100488.28;5033399;28;20179;-70
2022/10/14 00:36:13;;;;;;;9.27;5.30;;;;;;;20.44;64.68;100486.28;5016734;28;20528;-68
2022/10/14 00:38:41;;;;;;;7.07;4.50;;;;;;;20.43;64.51;100490.34;5016483;28;20732;-69
2022/10/14 00:41:07;;;;;;;6.87;4.40;;;;;;;20.43;64.96;100487.50;5016808;28;20418;-68
2022/10/14 00:43:55;;;;;;;6.70;4.00;;;;;;;20.43;64.63;100487.50;5016894;28;20406;-69
2022/10/14 00:46:22;;;;;;;8.10;4.70;;;;;;;20.41;65.02;100489.91;5033103;28;20187;-69
2022/10/14 00:48:47;;;;;;;6.40;4.20;;;;;;;20.43;64.68;100489.53;5016762;28;20509;-69
2022/10/14 00:51:13;;;;;;;5.77;4.50;;;;;;;20.41;65.16;100489.91;5016541;28;20971;-69
2022/10/14 00:53:39;;;;;;;7.33;4.00;;;;;;;20.43;64.94;100496.09;5016314;28;20179;-69
2022/10/14 00:56:04;;;;;;;6.17;4.50;;;;;;;20.43;64.70;100486.66;5016429;28;20521;-69
2022/10/14 00:58:30;;;;;;;9.23;4.87;;;;;;;20.43;64.57;100486.66;5032558;28;20477;-69
2022/10/14 01:00:55;;;;;;;6.97;4.23;;;;;;;20.43;65.01;100486.66;5054412;28;20171;-69
2022/10/14 01:03:21;;;;;;;7.60;4.37;;;;;;;20.42;64.85;100485.81;5050545;28;20584;-69
2022/10/14 01:05:52;;;;;;;8.07;4.60;;;;;;;20.44;65.15;100483.41;5003508;28;20690;-69
2022/10/14 01:08:27;;;;;;;6.83;4.17;;;;;;;20.44;64.82;100489.13;5019803;28;20423;-69
2022/10/14 01:11:08;;;;;;;6.20;4.20;;;;;;;20.42;64.99;100477.22;5019384;28;20419;-69
2022/10/14 01:13:36;;;;;;;7.77;4.00;;;;;;;20.42;64.82;100476.41;5036243;28;20407;-69
2022/10/14 01:16:25;;;;;;;8.43;4.90;;;;;;;20.42;64.78;100480.06;5019305;28;20938;-69
2022/10/14 01:19:09;;;;;;;7.50;4.30;;;;;;;20.44;64.67;100473.97;5036030;28;20834;-68
2022/10/14 01:21:40;;;;;;;7.50;4.87;;;;;;;20.45;64.26;100472.72;5037047;28;20434;-69
2022/10/14 01:24:24;;;;;;;6.80;4.20;;;;;;;20.42;64.67;100471.47;5040193;28;20773;-69
2022/10/14 01:27:02;;;;;;;5.40;3.73;;;;;;;20.42;64.47;100479.28;5055943;28;20422;-69
2022/10/14 01:30:00;;;;;;;7.30;5.07;;;;;;;20.40;64.85;100476.78;5039299;28;20496;-69
2022/10/14 01:32:32;;;;;;;6.57;4.30;;;;;;;20.41;65.51;100478.44;5055657;28;20780;-69
2022/10/14 01:35:20;;;;;;;6.10;4.40;;;;;;;20.40;65.03;100468.19;5055936;28;20433;-69
2022/10/14 01:37:58;;;;;;;6.77;4.40;;;;;;;20.41;64.83;100484.16;5039101;28;20402;-68
2022/10/14 01:40:44;;;;;;;6.47;4.20;;;;;;;20.43;64.94;100476.00;5036073;28;20458;-69
2022/10/14 01:43:10;;;;;;;7.50;3.90;;;;;;;20.42;64.70;100470.66;5035868;28;20439;-69
2022/10/14 01:45:35;;;;;;;7.43;4.00;;;;;;;20.40;64.81;100475.94;5035499;28;20411;-70
2022/10/14 01:48:01;;;;;;;6.10;4.33;;;;;;;20.41;64.64;100472.69;5002596;28;20176;-69
2022/10/14 01:50:26;;;;;;;6.40;4.20;;;;;;;20.40;64.88;100470.22;5002203;28;20820;-68
2022/10/14 01:53:02;;;;;;;6.57;4.33;;;;;;;20.40;64.94;100473.91;5018638;28;20168;-68
2022/10/14 01:55:29;;;;;;;7.40;4.20;;;;;;;20.40;64.82;100468.19;5018677;28;20172;-68
2022/10/14 01:57:55;;;;;;;4.03;3.10;;;;;;;20.41;64.70;100461.22;5035215;28;20525;-69
2022/10/14 02:00:20;;;;;;;7.40;4.40;;;;;;;20.39;64.93;100463.66;5022464;28;20544;-69
2022/10/14 02:02:46;;;;;;;8.20;4.77;;;;;;;20.39;64.85;100455.06;5038810;28;20430;-68
2022/10/14 02:05:36;;;;;;;6.13;4.03;;;;;;;20.40;64.71;100445.25;5056534;28;20211;-69
2022/10/14 02:08:29;;;;;;;6.30;4.40;;;;;;;20.38;64.71;100436.22;5002496;28;20437;-69
2022/10/14 02:11:17;;;;;;;6.37;3.90;;;;;;;20.39;64.96;100437.03;5041647;28;20873;-69
2022/10/14 02:14:21;;;;;;;4.97;3.60;;;;;;;20.38;64.94;100432.50;5034937;28;20414;-69
2022/10/14 02:17:05;;;;;;;7.03;4.10;;;;;;;20.37;64.60;100431.66;5045191;28;20946;-69
2022/10/14 02:19:48;;;;;;;6.93;4.30;;;;;;;20.39;64.92;100435.00;5035873;28;20454;-69
2022/10/14 02:22:36;;;;;;;9.17;4.50;;;;;;;20.41;65.01;100429.69;5019794;28;20766;-70
2022/10/14 02:25:28;;;;;;;7.00;3.80;;;;;;;20.37;64.77;100425.94;5052651;28;20434;-69
2022/10/14 02:27:54;;;;;;;6.20;4.10;;;;;;;20.37;65.04;100414.47;5044775;28;20529;-69
2022/10/14 02:30:19;;;;;;;9.00;4.43;;;;;;;20.37;64.87;100425.94;5053349;28;20409;-69
2022/10/14 02:32:45;;;;;;;5.40;3.90;;;;;;;20.35;64.85;100419.78;5034999;28;20187;-68
2022/10/14 02:35:10;;;;;;;9.33;4.53;;;;;;;20.35;64.89;100410.34;5035359;28;20192;-69
2022/10/14 02:37:36;;;;;;;5.47;4.23;;;;;;;20.36;65.08;100404.22;5018809;28;20627;-69
2022/10/14 02:40:07;;;;;;;6.93;4.10;;;;;;;20.36;65.10;100400.53;5035130;28;20560;-69
2022/10/14 02:42:32;;;;;;;5.10;3.57;;;;;;;20.37;64.71;100391.53;5035203;28;20172;-69
2022/10/14 02:44:58;;;;;;;7.80;4.13;;;;;;;20.39;64.81;100388.28;5035191;28;20468;-69
2022/10/14 02:47:24;;;;;;;6.03;4.10;;;;;;;20.37;64.96;100396.44;5018835;28;20628;-69
2022/10/14 02:49:50;;;;;;;7.30;4.00;;;;;;;20.36;65.10;100383.34;5034651;28;20407;-68
2022/10/14 02:52:15;;;;;;;6.90;3.83;;;;;;;20.38;65.38;100387.47;5018486;28;20207;-68
2022/10/14 02:54:41;;;;;;;4.50;3.50;;;;;;;20.37;64.88;100380.06;5035160;28;20221;-69
2022/10/14 02:57:06;;;;;;;5.13;3.40;;;;;;;20.36;64.75;100378.41;5052425;28;20183;-69
2022/10/14 02:59:31;;;;;;;4.23;3.10;;;;;;;20.36;65.36;100383.34;5052756;28;20283;-69
2022/10/14 03:01:57;;;;;;;6.80;3.83;;;;;;;20.34;65.07;100377.97;5052561;28;20165;-69
2022/10/14 03:04:22;;;;;;;5.57;3.80;;;;;;;20.35;64.95;100376.75;5052903;28;20200;-69
2022/10/14 03:06:48;;;;;;;6.83;3.70;;;;;;;20.35;64.97;100368.16;5034394;28;20179;-67
2022/10/14 03:09:13;;;;;;;8.57;4.37;;;;;;;20.36;64.69;100366.13;5034779;28;20826;-69
2022/10/14 03:11:39;;;;;;;8.83;3.67;;;;;;;20.35;64.91;100358.72;5052770;28;20506;-69
2022/10/14 03:14:04;;;;;;;5.60;3.77;;;;;;;20.36;64.76;100355.47;5017835;28;20174;-69
2022/10/14 03:16:30;;;;;;;6.27;3.87;;;;;;;20.36;64.74;100352.59;5034525;28;20285;-69
2022/10/14 03:18:55;;;;;;;5.50;3.87;;;;;;;20.36;65.06;100341.13;5034556;28;20562;-69
2022/10/14 03:21:20;;;;;;;4.53;3.13;;;;;;;20.34;64.78;100340.72;5052264;28;20319;-69
2022/10/14 03:23:46;;;;;;;4.97;3.30;;;;;;;20.36;64.84;100343.19;5034424;28;20237;-69
2022/10/14 03:26:11;;;;;;;6.33;3.73;;;;;;;20.35;65.15;100342.34;5051640;28;20176;-69
2022/10/14 03:28:37;;;;;;;6.30;3.87;;;;;;;20.33;65.10;100347.66;5052215;28;20190;-69
2022/10/14 03:31:02;;;;;;;5.50;4.03;;;;;;;20.34;65.02;100345.59;5051155;28;20521;-69
2022/10/14 03:33:28;;;;;;;4.47;3.40;;;;;;;20.34;64.87;100346.44;5017770;28;20681;-69
2022/10/14 03:35:53;;;;;;;5.60;3.50;;;;;;;20.33;65.01;100333.34;5050723;28;20685;-69
2022/10/14 03:38:18;;;;;;;4.97;3.37;;;;;;;20.34;64.90;100337.00;5050535;28;20164;-68
2022/10/14 03:40:44;;;;;;;4.67;3.57;;;;;;;20.36;65.20;100341.13;5052294;28;20210;-69
2022/10/14 03:43:09;;;;;;;5.97;3.83;;;;;;;20.33;65.19;100336.19;5050711;28;20221;-69
2022/10/14 03:45:35;;;;;;;4.77;3.50;;;;;;;20.33;64.92;100329.63;5033897;28;20167;-69
2022/10/14 03:48:00;;;;;;;5.90;4.20;;;;;;;20.34;65.07;100329.25;5050607;28;20168;-69
2022/10/14 03:50:26;;;;;;;4.70;3.50;;;;;;;20.36;64.93;100326.00;5051766;28;20628;-69
2022/10/14 03:52:52;;;;;;;6.30;3.67;;;;;;;20.35;64.94;100319.41;5051970;28;20167;-69
2022/10/14 03:55:17;;;;;;;5.53;3.50;;;;;;;20.34;65.15;100326.38;5051801;28;20415;-68
2022/10/14 03:57:43;;;;;;;6.00;3.43;;;;;;;20.35;64.66;100319.41;5033364;28;20198;-68
2022/10/14 04:00:09;;;;;;;4.87;3.70;;;;;;;20.34;64.77;100320.63;5033837;28;20206;-69
2022/10/14 04:02:34;;;;;;;5.03;3.40;;;;;;;20.34;65.13;100308.34;5049941;28;20179;-69
2022/10/14 04:05:00;;;;;;;4.60;3.70;;;;;;;20.33;65.06;100315.28;5051345;28;20442;-69
2022/10/14 04:07:25;;;;;;;5.27;3.57;;;;;;;20.36;64.75;100314.50;5051063;28;20172;-69
2022/10/14 04:09:51;;;;;;;6.07;3.60;;;;;;;20.33;65.18;100304.66;5033748;28;20175;-69
2022/10/14 04:12:16;;;;;;;5.70;3.50;;;;;;;20.34;65.05;100297.69;5051892;28;20188;-68
2022/10/14 04:14:41;;;;;;;6.00;3.83;;;;;;;20.32;64.85;100294.38;5051497;28;20180;-69
2022/10/14 04:17:07;;;;;;;6.67;3.63;;;;;;;20.32;65.09;100291.50;5036592;28;20232;-69
2022/10/14 04:19:32;;;;;;;5.90;3.73;;;;;;;20.36;64.99;100295.25;4994041;28;20664;-69
2022/10/14 04:21:58;;;;;;;6.30;3.60;;;;;;;20.35;65.07;100293.59;5011581;28;20227;-68
2022/10/14 04:24:23;;;;;;;5.20;3.43;;;;;;;20.35;64.92;100295.63;5010103;28;20188;-69
2022/10/14 04:26:50;;;;;;;5.30;3.63;;;;;;;20.34;64.90;100294.84;5010483;28;20200;-69
2022/10/14 04:29:16;;;;;;;5.30;3.57;;;;;;;20.35;65.15;100287.03;5010564;28;20196;-69
2022/10/14 04:31:42;;;;;;;5.07;3.40;;;;;;;20.34;65.10;100285.41;5011563;28;20463;-69
2022/10/14 04:34:08;;;;;;;4.20;3.03;;;;;;;20.34;65.27;100280.50;5011544;28;20188;-69
2022/10/14 04:36:34;;;;;;;5.33;3.50;;;;;;;20.34;64.95;100280.50;4993474;28;20192;-69
2022/10/14 04:38:59;;;;;;;4.63;2.80;;;;;;;20.36;64.95;100274.38;5011180;28;20462;-69
2022/10/14 04:41:24;;;;;;;4.90;3.47;;;;;;;20.33;64.82;100276.00;5010235;28;20169;-68
2022/10/14 04:43:50;;;;;;;4.43;3.33;;;;;;;20.35;65.07;100269.84;4993526;28;20173;-69
2022/10/14 04:46:15;;;;;;;7.27;3.33;;;;;;;20.33;64.87;100276.00;5011550;28;20200;-69
2022/10/14 04:48:41;;;;;;;3.70;2.87;;;;;;;20.35;65.04;100262.06;5010156;28;20171;-69
2022/10/14 04:51:06;;;;;;;4.40;3.03;;;;;;;20.35;64.90;100258.38;5010072;28;20222;-68
2022/10/14 04:53:32;;;;;;;5.00;3.00;;;;;;;20.34;65.18;100257.56;4993104;28;20288;-70
2022/10/14 04:55:57;;;;;;;4.17;3.23;;;;;;;20.36;64.86;100252.25;5011343;28;20169;-68
2022/10/14 04:58:22;;;;;;;4.63;3.33;;;;;;;20.34;64.87;100237.47;5009655;28;20185;-69
2022/10/14 05:00:48;;;;;;;5.20;3.13;;;;;;;20.38;64.79;100240.38;5010193;28;20184;-71
2022/10/14 05:03:13;;;;;;;4.83;3.20;;;;;;;20.35;64.87;100235.41;5009699;28;20173;-69
2022/10/14 05:05:39;;;;;;;4.07;2.93;;;;;;;20.35;64.89;100232.56;5011343;28;20824;-69
2022/10/14 05:08:04;;;;;;;5.43;3.60;;;;;;;20.34;65.08;100228.03;4992412;28;20177;-71
2022/10/14 05:10:30;;;;;;;4.83;2.93;;;;;;;20.36;64.74;100217.84;5009887;28;20161;-69
2022/10/14 05:12:55;;;;;;;5.20;3.43;;;;;;;20.34;64.83;100216.56;5010002;28;20200;-69
2022/10/14 05:15:21;;;;;;;4.10;3.20;;;;;;;20.33;65.12;100210.03;4992407;28;20744;-70
2022/10/14 05:17:47;;;;;;;4.83;3.17;;;;;;;20.32;64.81;100216.97;4976608;28;20228;-68
2022/10/14 05:20:13;;;;;;;4.67;3.03;;;;;;;20.32;65.16;100210.44;5008094;28;20224;-69
2022/10/14 05:22:39;;;;;;;5.10;3.43;;;;;;;20.34;64.81;100211.69;5007901;28;20409;-69
2022/10/14 05:25:04;;;;;;;3.40;2.90;;;;;;;20.34;65.23;100217.41;4975417;28;20582;-69
2022/10/14 05:27:30;;;;;;;4.03;3.07;;;;;;;20.34;64.63;100208.81;5008084;28;20185;-70
2022/10/14 05:29:55;;;;;;;3.77;2.90;;;;;;;20.32;64.94;100214.09;4991989;28;20173;-69
2022/10/14 05:32:21;;;;;;;4.20;3.10;;;;;;;20.35;64.78;100213.31;5008421;28;20166;-68
2022/10/14 05:34:46;;;;;;;7.87;3.07;;;;;;;20.35;64.84;100210.44;5008894;28;20180;-70
2022/10/14 05:37:12;;;;;;;4.87;3.20;;;;;;;20.33;64.93;100217.81;4993630;28;20173;-69
2022/10/14 05:39:37;;;;;;;4.20;3.20;;;;;;;20.33;64.98;100214.94;4993207;28;20193;-70
2022/10/14 05:42:03;;;;;;;5.23;3.17;;;;;;;20.35;65.14;100218.22;5008578;28;20574;-70
2022/10/14 05:44:28;;;;;;;5.07;2.97;;;;;;;20.34;64.85;100214.53;5008831;28;20729;-69
2022/10/14 05:46:54;;;;;;;4.40;3.10;;;;;;;20.36;65.04;100212.09;5010811;28;20185;-70
2022/10/14 05:49:19;;;;;;;4.33;2.83;;;;;;;20.34;65.41;100208.81;5014344;28;20165;-69
2022/10/14 05:51:44;;;;;;;5.93;3.00;;;;;;;20.34;65.24;100202.25;5013033;28;20164;-69
2022/10/14 05:54:11;;;;;;;4.70;2.80;;;;;;;20.33;65.36;100201.44;4996590;28;20177;-69
2022/10/14 05:56:36;;;;;;;5.10;3.13;;;;;;;20.34;65.00;100202.25;5013198;28;20184;-69
2022/10/14 05:59:02;;;;;;;3.93;3.23;;;;;;;20.33;64.81;100207.16;5013054;28;20452;-70
2022/10/14 06:01:27;;;;;;;4.20;2.80;;;;;;;20.34;65.07;100208.81;5014555;28;20170;-69
2022/10/14 06:03:53;;;;;;;4.87;3.00;;;;;;;20.37;64.72;100208.00;4996173;28;20201;-69
2022/10/14 06:06:21;;;;;;;5.00;3.67;;;;;;;20.35;64.95;100206.75;5012767;28;20184;-69
2022/10/14 06:08:47;;;;;;;4.17;3.00;;;;;;;20.34;65.13;100207.97;5009326;28;20794;-69
2022/10/14 06:11:12;;;;;;;4.07;3.07;;;;;;;20.35;64.88;100216.19;5005330;28;20431;-69
2022/10/14 06:13:38;;;;;;;3.93;2.53;;;;;;;20.35;65.10;100215.34;5013753;28;20181;-69
2022/10/14 06:16:04;;;;;;;3.90;2.83;;;;;;;20.34;65.07;100207.97;5015641;28;20176;-69
2022/10/14 06:18:30;;;;;;;4.80;2.73;;;;;;;20.34;64.89;100208.81;5053818;28;20554;-69
2022/10/14 06:20:55;;;;;;;4.00;3.03;;;;;;;20.35;64.87;100201.00;5036066;28;20399;-69
2022/10/14 06:23:21;;;;;;;5.37;3.17;;;;;;;20.37;64.87;100202.25;5053498;28;20172;-69
2022/10/14 06:25:46;;;;;;;4.53;2.90;;;;;;;20.36;64.85;100200.63;5053307;28;20171;-69
2022/10/14 06:28:12;;;;;;;3.87;3.07;;;;;;;20.34;65.17;100197.34;5035233;28;20194;-69
2022/10/14 06:30:37;;;;;;;4.40;2.93;;;;;;;20.35;65.05;100201.00;5033709;28;20631;-69
2022/10/14 06:33:06;;;;;;;4.60;3.27;;;;;;;20.36;64.89;100205.56;5033612;28;20172;-69
2022/10/14 06:35:32;;;;;;;4.00;2.60;;;;;;;20.36;65.00;100197.75;5033718;28;20168;-69
2022/10/14 06:37:57;;;;;;;4.97;3.00;;;;;;;20.36;64.97;100206.38;5015930;28;20922;-69
2022/10/14 06:40:23;;;;;;;4.37;2.70;;;;;;;20.37;64.97;100204.34;5015682;28;20458;-70
2022/10/14 06:42:49;;;;;;;4.30;2.90;;;;;;;20.36;64.76;100203.50;5033159;28;20160;-69
2022/10/14 06:45:14;;;;;;;4.40;3.20;;;;;;;20.35;64.96;100203.88;5015195;28;20196;-70
2022/10/14 06:47:40;;;;;;;3.40;2.30;;;;;;;20.36;64.86;100206.38;5049597;28;20175;-69
2022/10/14 06:50:05;;;;;;;4.30;2.90;;;;;;;20.35;64.64;100201.84;5034239;28;20559;-69
2022/10/14 06:52:31;;;;;;;3.53;2.60;;;;;;;20.36;64.86;100200.63;5035040;28;20683;-70
2022/10/14 06:54:57;;;;;;;3.90;3.07;;;;;;;20.36;64.99;100200.63;5027134;28;20572;-69
2022/10/14 06:57:22;;;;;;;4.57;2.80;;;;;;;20.35;65.00;100201.84;5049597;28;20180;-69
2022/10/14 06:59:47;;;;;;;3.67;2.70;;;;;;;20.35;65.05;100204.72;5046611;28;20188;-69
2022/10/14 07:02:13;;;;;;;4.27;2.90;;;;;;;20.37;64.99;100208.00;5036284;28;20184;-70
2022/10/14 07:04:39;;;;;;;4.70;3.20;;;;;;;20.37;64.98;100202.25;5042123;28;20203;-69
2022/10/14 07:07:05;;;;;;;4.50;3.10;;;;;;;20.37;64.77;100205.13;5021669;28;20184;-68
2022/10/14 07:09:31;;;;;;;13.20;5.03;;;;;;;20.35;66.19;100198.97;5024786;28;20175;-69
2022/10/14 07:11:56;;;;;;;9.20;5.53;;;;;;;20.42;67.25;100209.69;5036129;28;21976;-69
2022/10/14 07:14:22;;;;;;;16.20;7.30;;;;;;;20.59;68.71;100203.28;5012921;28;20198;-70
2022/10/14 07:16:47;;;;;;;17.57;9.13;;;;;;;20.55;68.73;100209.00;5048931;28;20224;-68
2022/10/14 07:19:13;;;;;;;16.47;7.57;;;;;;;20.56;68.25;100199.16;5032999;28;20192;-70
2022/10/14 07:21:38;;;;;;;8.07;5.90;;;;;;;20.59;68.24;100203.28;5033316;28;20182;-71
2022/10/14 07:24:05;;;;;;;12.20;7.40;;;;;;;20.68;68.53;100213.19;5033464;28;20168;-69
2022/10/14 07:26:30;;;;;;;18.53;6.83;;;;;;;20.68;67.96;100210.31;5047870;28;20892;-69
2022/10/14 07:28:56;;;;;;;11.40;6.40;;;;;;;20.68;68.18;100213.19;5022495;28;20433;-70
2022/10/14 07:31:21;;;;;;;16.40;7.13;;;;;;;20.71;68.35;100203.78;5031808;28;20192;-69
2022/10/14 07:33:47;;;;;;;10.43;6.23;;;;;;;20.73;68.25;100203.41;5016115;28;20505;-69
2022/10/14 07:36:14;;;;;;;11.73;5.60;;;;;;;20.75;67.87;100213.25;5033444;28;20180;-69
2022/10/14 07:38:40;;;;;;;11.70;5.20;;;;;;;20.72;67.35;100218.97;4997534;28;20191;-69
2022/10/14 07:41:15;;;;;;;10.80;5.50;;;;;;;20.83;67.29;100220.69;5031183;28;20431;-69
2022/10/14 07:43:49;;;;;;;9.00;5.33;;;;;;;20.81;67.40;100216.56;5037160;28;20190;-69
2022/10/14 07:46:16;;;;;;;7.50;4.53;;;;;;;20.85;66.04;100226.03;5033700;28;20520;-69
2022/10/14 07:48:42;;;;;;;11.50;4.53;;;;;;;20.80;66.67;100218.63;5050613;28;20410;-69
2022/10/14 07:51:07;;;;;;;12.40;4.93;;;;;;;20.83;66.37;100226.41;5052019;28;20425;-71
2022/10/14 07:53:33;;;;;;;17.00;4.40;;;;;;;20.86;66.30;100222.75;5021487;28;20229;-71
2022/10/14 07:55:58;;;;;;;10.77;4.70;;;;;;;20.89;66.29;100224.00;5025909;28;20179;-70
2022/10/14 07:58:29;;;;;;;12.53;5.03;;;;;;;20.86;66.27;100219.06;5039411;28;20222;-70
2022/10/14 08:00:54;;;;;;;7.33;4.20;;;;;;;20.84;66.06;100218.66;5007949;28;20187;-70
2022/10/14 08:03:20;;;;;;;9.60;4.40;;;;;;;20.84;66.14;100221.50;5032504;28;20439;-71
2022/10/14 08:05:46;;;;;;;8.93;4.80;;;;;;;20.90;65.70;100223.66;5016531;28;20214;-69
2022/10/14 08:08:12;;;;;;;11.97;6.10;;;;;;;21.13;66.02;100223.41;5030984;28;20188;-70
2022/10/14 08:10:37;;;;;;;11.93;7.03;;;;;;;21.20;65.54;100218.53;5030812;28;20180;-70
2022/10/14 08:13:03;;;;;;;8.77;5.63;;;;;;;21.05;65.16;100222.53;5029871;28;20187;-70
2022/10/14 08:15:32;;;;;;;8.73;5.40;;;;;;;20.93;65.43;100225.72;5036820;28;20282;-69
2022/10/14 08:17:58;;;;;;;7.73;5.50;;;;;;;20.93;65.13;100219.16;5040011;28;20235;-70
2022/10/14 08:20:24;;;;;;;9.70;5.50;;;;;;;20.93;64.93;100222.03;5010563;28;20486;-72
2022/10/14 08:22:50;;;;;;;12.60;5.20;;;;;;;20.92;64.72;100218.31;5012190;28;20187;-70
2022/10/14 08:25:15;;;;;;;9.83;5.40;;;;;;;20.89;64.59;100213.41;5048308;28;20422;-70
2022/10/14 08:27:41;;;;;;;8.10;4.73;;;;;;;20.91;64.64;100221.59;5025758;28;20188;-71
2022/10/14 08:30:07;;;;;;;11.43;4.77;;;;;;;20.89;64.29;100219.13;5043399;28;20175;-69
2022/10/14 08:32:33;;;;;;;9.43;5.67;;;;;;;20.88;64.29;100213.75;5051022;28;20187;-70
2022/10/14 08:34:58;;;;;;;7.77;4.53;;;;;;;20.81;64.53;100210.81;5043509;28;20439;-68
2022/10/14 08:37:23;;;;;;;11.23;4.87;;;;;;;20.75;64.45;100213.25;5047886;28;20179;-66
2022/10/14 08:39:49;;;;;;;9.10;4.77;;;;;;;20.69;64.47;100203.38;5021008;28;20196;-68
2022/10/14 08:42:39;;;;;;;12.87;5.77;;;;;;;20.65;64.57;100202.53;5022947;28;20549;-67
2022/10/14 08:45:39;;;;;;;11.60;6.07;;;;;;;20.66;64.55;100209.06;5041229;28;20187;-67
2022/10/14 08:48:12;;;;;;;8.10;5.80;;;;;;;20.65;64.77;100205.38;5018816;28;20434;-68
2022/10/14 08:50:46;;;;;;;11.50;5.73;;;;;;;20.61;65.00;100213.13;5035015;28;20891;-68
2022/10/14 08:53:37;;;;;;;9.77;5.30;;;;;;;20.58;65.06;100202.44;5027959;28;20434;-67
2022/10/14 08:56:03;;;;;;;16.67;6.83;;;;;;;20.61;65.07;100209.44;5029165;28;20979;-69
2022/10/14 08:58:39;;;;;;;11.97;6.10;;;;;;;20.71;65.41;100209.53;5031615;28;20437;-69
2022/10/14 09:01:14;;;;;;;13.77;6.43;;;;;;;20.87;64.59;100209.25;5026048;28;20199;-67
2022/10/14 09:03:40;;;;;;;16.47;5.67;;;;;;;20.94;64.68;100217.94;5021973;28;20922;-67
2022/10/14 09:06:09;;;;;;;17.40;6.17;;;;;;;20.85;64.43;100218.25;5023895;28;20492;-67
2022/10/14 09:08:37;;;;;;;11.23;5.97;;;;;;;20.90;65.08;100219.94;5011859;28;20434;-67
2022/10/14 09:11:04;;;;;;;10.07;5.50;;;;;;;20.85;64.92;100218.25;5027872;28;20441;-68
2022/10/14 09:13:35;;;;;;;10.40;5.40;;;;;;;20.86;65.84;100216.19;5028817;28;20439;-68
2022/10/14 09:16:23;;;;;;;13.30;5.90;;;;;;;20.93;66.13;100224.91;5027992;28;20445;-69
2022/10/14 09:19:21;;;;;;;24.80;5.50;;;;;;;21.04;66.31;100217.19;5037142;28;20474;-69
2022/10/14 09:21:51;;;;;;;15.50;5.90;;;;;;;21.05;66.08;100225.41;5025856;28;21077;-68
2022/10/14 09:24:37;;;;;;;14.63;5.63;;;;;;;21.09;65.74;100211.91;5037994;28;20442;-69
2022/10/14 09:27:09;;;;;;;15.00;5.53;;;;;;;20.87;66.28;100210.06;5044011;28;21027;-67
2022/10/14 09:29:55;;;;;;;11.40;5.13;;;;;;;20.87;66.51;100210.06;5021712;28;21114;-68
2022/10/14 09:32:39;;;;;;;9.37;5.60;;;;;;;20.80;66.65;100201.41;5034938;28;20487;-68
2022/10/14 09:35:32;;;;;;;14.50;5.10;;;;;;;20.78;66.62;100203.84;5041045;28;20425;-68
2022/10/14 09:37:57;;;;;;;11.90;5.47;;;;;;;20.68;66.76;100198.84;5034546;28;20465;-68
2022/10/14 09:40:43;;;;;;;10.00;5.30;;;;;;;20.64;66.71;100195.16;5021364;28;20461;-68
2022/10/14 09:43:09;;;;;;;14.10;4.70;;;;;;;20.61;65.70;100189.34;5023077;28;20207;-68
2022/10/14 09:45:59;;;;;;;8.50;5.47;;;;;;;20.60;65.43;100185.69;5044107;28;20434;-68
2022/10/14 09:48:24;;;;;;;17.03;5.40;;;;;;;20.63;65.58;100182.00;5040994;28;20188;-67
2022/10/14 09:50:54;;;;;;;16.63;5.40;;;;;;;20.64;65.73;100182.84;5042303;28;20434;-67
2022/10/14 09:53:41;;;;;;;10.93;5.20;;;;;;;20.62;65.88;100177.50;5030933;28;20196;-68
2022/10/14 09:56:07;;;;;;;14.93;5.70;;;;;;;20.63;65.92;100176.25;5035443;28;20429;-67
2022/10/14 09:58:34;;;;;;;9.03;5.30;;;;;;;20.63;65.79;100170.53;5035109;28;20799;-67
2022/10/14 10:01:00;;;;;;;13.70;5.33;;;;;;;20.62;65.84;100174.63;5032364;28;20196;-67
2022/10/14 10:03:47;;;;;;;10.30;4.23;;;;;;;20.63;66.08;100170.53;5037010;28;20895;-67
2022/10/14 10:06:14;;;;;;;8.87;4.90;;;;;;;20.65;66.00;100173.84;5035855;28;20287;-67
2022/10/14 10:09:00;;;;;;;8.90;4.70;;;;;;;20.63;65.93;100166.84;5038203;28;20966;-67
2022/10/14 10:11:30;;;;;;;8.57;4.80;;;;;;;20.64;65.86;100165.63;5034720;28;20453;-67
2022/10/14 10:13:55;;;;;;;15.57;4.47;;;;;;;20.64;66.05;100163.59;5034521;28;21137;-68
2022/10/14 10:16:22;;;;;;;12.47;4.67;;;;;;;20.63;66.14;100150.44;5025007;28;20419;-68
2022/10/14 10:18:56;;;;;;;8.57;4.37;;;;;;;20.63;65.78;100147.56;5034815;28;20287;-67
2022/10/14 10:21:26;;;;;;;8.87;4.50;;;;;;;20.61;66.04;100147.16;5035308;28;20434;-67
2022/10/14 10:23:55;;;;;;;9.80;4.90;;;;;;;20.63;65.97;100138.97;5019760;28;20502;-67
2022/10/14 10:26:30;;;;;;;9.70;4.50;;;;;;;20.64;66.15;100134.91;5033588;28;20458;-68
2022/10/14 10:28:56;;;;;;;12.17;5.83;;;;;;;20.63;65.77;100132.44;5019159;28;20427;-68
2022/10/14 10:31:52;;;;;;;14.17;4.73;;;;;;;20.61;65.89;100127.09;5037523;28;21336;-68
2022/10/14 10:34:27;;;;;;;10.40;4.60;;;;;;;20.61;65.94;100132.81;5034017;28;20419;-67
2022/10/14 10:36:56;;;;;;;12.20;4.40;;;;;;;20.62;65.99;100131.59;5037939;28;20621;-67
2022/10/14 10:39:24;;;;;;;7.83;4.60;;;;;;;20.62;66.30;100125.06;5023796;28;20470;-67
2022/10/14 10:41:59;;;;;;;10.03;4.40;;;;;;;20.60;66.03;100121.75;5018360;28;20431;-67
2022/10/14 10:44:43;;;;;;;6.50;4.37;;;;;;;20.62;65.93;100120.13;5037605;28;20426;-67
2022/10/14 10:47:20;;;;;;;9.67;4.87;;;;;;;20.62;65.93;100117.25;5034009;28;20429;-67
2022/10/14 10:49:49;;;;;;;8.47;4.43;;;;;;;20.60;66.05;100105.38;5036513;28;20512;-67
2022/10/14 10:52:24;;;;;;;6.67;3.90;;;;;;;20.61;65.94;100104.13;5034992;28;20937;-68
2022/10/14 10:54:55;;;;;;;13.67;4.33;;;;;;;20.60;65.94;100102.50;5033205;28;20430;-68
2022/10/14 10:57:29;;;;;;;9.23;4.40;;;;;;;20.59;66.16;100106.59;5025431;28;20442;-67
2022/10/14 11:00:07;;;;;;;8.13;4.20;;;;;;;20.60;66.10;100093.88;5033139;28;20465;-67
2022/10/14 11:02:54;;;;;;;10.23;4.83;;;;;;;20.61;65.93;100086.09;5015439;28;20534;-67
2022/10/14 11:05:34;;;;;;;10.93;4.60;;;;;;;20.60;65.99;100088.16;5016062;28;21217;-67
2022/10/14 11:14:12;;;;;;;9.37;4.57;;;;;;;20.59;65.98;100080.78;5037743;28;20485;-68
2022/10/14 11:16:51;;;;;;;9.27;5.07;;;;;;;20.61;66.05;100072.59;5020522;28;20466;-67
2022/10/14 11:19:36;;;;;;;9.10;3.90;;;;;;;20.61;66.12;100077.47;5032011;28;20473;-67
2022/10/14 11:22:10;;;;;;;8.70;3.87;;;;;;;20.60;65.75;100076.69;5028857;28;20418;-68
2022/10/14 11:24:41;;;;;;;9.10;4.23;;;;;;;20.60;65.68;100079.56;5034424;28;21144;-68
2022/10/14 11:27:13;;;;;;;8.73;4.30;;;;;;;20.61;66.12;100074.63;5033504;28;20471;-67
2022/10/14 11:29:51;;;;;;;12.50;3.80;;;;;;;20.60;65.52;100078.72;5038191;28;20422;-67
2022/10/14 11:32:21;;;;;;;9.77;3.77;;;;;;;20.61;65.62;100074.63;5037334;28;20513;-68
2022/10/14 11:34:58;;;;;;;8.00;4.00;;;;;;;20.59;65.57;100066.44;5034432;28;20444;-67
2022/10/14 11:37:31;;;;;;;9.97;4.20;;;;;;;20.59;65.97;100072.16;5040685;28;20788;-68
2022/10/14 11:40:10;;;;;;;7.53;4.37;;;;;;;20.58;65.90;100070.50;5032731;28;20463;-67
2022/10/14 11:43:12;;;;;;;7.40;3.87;;;;;;;20.59;65.79;100077.06;5024080;28;20442;-68